Time;durP1;ratioP1;P1;durP2;ratioP2;P2;SDS_P1;SDS_P2;PMS_P1;PMS_P2;Temp;Humidity;BMP_temperature;BMP_pressure;BME280_temperature;BME280_humidity;BME280_pressure;Samples;Min_cycle;Max_cycle;Signal;HPM_P1;HPM_P2
2021/12/21 00:02:14;;;;;;;12.20;4.65;;;2.50;97.90;;;;;;5019024;28;20052;-85
2021/12/21 00:04:39;;;;;;;11.07;4.40;;;2.20;97.80;;;;;;5019324;28;20053;-85
2021/12/21 00:07:06;;;;;;;14.52;4.28;;;2.20;97.80;;;;;;5019223;28;20477;-86
2021/12/21 00:09:32;;;;;;;11.57;4.45;;;2.10;97.80;;;;;;5035032;28;20041;-85
2021/12/21 00:11:59;;;;;;;9.50;4.40;;;2.10;97.80;;;;;;5035688;28;20052;-86
2021/12/21 00:14:37;;;;;;;12.23;4.47;;;2.10;97.80;;;;;;5035088;28;20037;-85
2021/12/21 00:25:12;;;;;;;12.60;3.72;;;1.90;97.80;;;;;;5035415;28;20052;-86
2021/12/21 00:27:37;;;;;;;9.57;4.25;;;1.90;97.70;;;;;;5036141;28;20046;-86
2021/12/21 00:30:04;;;;;;;9.63;4.05;;;1.90;97.80;;;;;;5021612;28;20045;-85
2021/12/21 00:32:30;;;;;;;13.00;4.38;;;2.00;98.00;;;;;;5036930;28;20049;-85
2021/12/21 00:34:55;;;;;;;10.05;4.22;;;2.00;97.90;;;;;;4986374;28;20042;-86
2021/12/21 00:37:22;;;;;;;8.90;3.83;;;2.10;97.80;;;;;;5018239;28;20480;-85
2021/12/21 00:39:48;;;;;;;12.93;4.25;;;2.00;97.50;;;;;;5033795;28;20091;-86
2021/12/21 00:42:14;;;;;;;10.27;4.32;;;1.90;97.60;;;;;;5034672;28;20049;-85
2021/12/21 00:44:41;;;;;;;12.88;3.80;;;2.00;97.70;;;;;;5018446;28;20112;-85
2021/12/21 00:47:07;;;;;;;9.07;3.88;;;1.90;98.00;;;;;;5017983;28;20052;-86
2021/12/21 00:49:32;;;;;;;12.13;3.83;;;2.10;97.70;;;;;;5018234;28;20038;-85
2021/12/21 00:51:58;;;;;;;13.50;4.03;;;1.90;97.70;;;;;;5034904;28;20138;-85
2021/12/21 00:54:24;;;;;;;10.65;3.67;;;1.80;97.70;;;;;;5034430;28;20045;-85
2021/12/21 00:56:49;;;;;;;9.50;3.78;;;2.10;97.80;;;;;;5018290;28;20146;-85
2021/12/21 00:59:15;;;;;;;9.95;3.60;;;1.90;97.80;;;;;;5034919;28;20053;-85
2021/12/21 01:01:42;;;;;;;8.23;3.33;;;1.90;97.60;;;;;;5018129;28;20087;-85
2021/12/21 01:04:16;;;;;;;9.93;3.60;;;1.80;97.70;;;;;;5034645;28;20050;-85
2021/12/21 01:06:48;;;;;;;8.48;3.45;;;1.90;97.70;;;;;;5018114;28;20484;-85
2021/12/21 01:11:55;;;;;;;9.73;3.95;;;1.80;97.80;;;;;;5034599;28;20049;-85
2021/12/21 01:17:16;;;;;;;9.32;3.70;;;1.80;97.80;;;;;;5034446;28;20141;-85
2021/12/21 01:19:51;;;;;;;8.50;3.72;;;1.70;97.70;;;;;;5034249;28;20058;-85
2021/12/21 01:22:40;;;;;;;6.75;4.13;;;1.70;97.80;;;;;;5034048;28;20061;-85
2021/12/21 01:33:04;;;;;;;11.57;3.90;;;1.60;97.70;;;;;;5034388;28;20056;-85
2021/12/21 01:35:35;;;;;;;7.50;4.07;;;1.70;97.90;;;;;;5017778;28;20489;-86
2021/12/21 01:51:01;;;;;;;9.95;3.83;;;1.70;97.70;;;;;;5032709;28;20061;-85
2021/12/21 01:53:26;;;;;;;11.43;4.57;;;1.80;97.90;;;;;;5033291;28;20041;-85
2021/12/21 01:55:52;;;;;;;14.30;4.63;;;1.60;97.90;;;;;;5017183;28;20049;-85
2021/12/21 01:58:18;;;;;;;9.35;4.95;;;1.70;98.00;;;;;;5033745;28;20054;-85
2021/12/21 02:00:44;;;;;;;11.27;5.15;;;1.70;98.00;;;;;;5033631;28;20053;-85
2021/12/21 02:03:10;;;;;;;17.15;5.38;;;1.70;98.00;;;;;;5033426;28;20056;-85
2021/12/21 02:05:37;;;;;;;8.60;4.50;;;1.70;98.00;;;;;;5017025;28;20089;-85
2021/12/21 02:08:04;;;;;;;10.32;4.32;;;1.70;98.00;;;;;;5016608;28;20499;-84
2021/12/21 02:10:30;;;;;;;11.10;4.68;;;1.60;97.90;;;;;;5033759;28;20092;-85
2021/12/21 02:12:56;;;;;;;9.32;4.82;;;1.70;98.10;;;;;;5000571;28;20141;-85
2021/12/21 02:15:24;;;;;;;12.65;5.60;;;1.60;97.90;;;;;;5016600;28;20056;-85
2021/12/21 02:23:07;;;;;;;12.65;5.45;;;1.60;97.90;;;;;;5016363;28;20076;-85
2021/12/21 02:25:53;;;;;;;8.32;4.47;;;1.60;97.80;;;;;;5033161;28;20060;-85
2021/12/21 02:28:35;;;;;;;18.23;6.18;;;1.60;97.80;;;;;;5019443;28;20049;-85
2021/12/21 02:31:01;;;;;;;13.52;5.88;;;1.60;97.80;;;;;;5033129;28;20132;-85
2021/12/21 02:33:27;;;;;;;15.00;5.45;;;1.60;97.70;;;;;;5016294;28;20072;-85
2021/12/21 02:35:54;;;;;;;12.90;5.60;;;1.60;97.80;;;;;;5000335;28;20487;-85
2021/12/21 02:38:20;;;;;;;12.50;5.57;;;1.60;97.70;;;;;;5032759;28;20511;-85
2021/12/21 02:40:46;;;;;;;11.07;5.10;;;1.60;97.70;;;;;;5032333;28;20046;-85
2021/12/21 02:43:13;;;;;;;10.63;4.93;;;1.70;97.70;;;;;;5000528;28;20045;-85
2021/12/21 02:45:40;;;;;;;13.70;5.43;;;1.60;97.50;;;;;;5016484;28;20511;-85
2021/12/21 02:48:06;;;;;;;13.13;6.45;;;1.70;97.50;;;;;;5049468;28;20045;-85
2021/12/21 02:50:32;;;;;;;13.43;5.97;;;1.60;97.60;;;;;;5033085;28;20047;-85
2021/12/21 02:53:02;;;;;;;13.93;6.15;;;1.80;97.50;;;;;;5032558;28;20128;-85
2021/12/21 02:55:28;;;;;;;9.90;5.40;;;1.40;97.50;;;;;;5016326;28;20195;-84
2021/12/21 02:57:57;;;;;;;13.02;5.82;;;1.60;97.70;;;;;;5032859;28;20046;-84
2021/12/21 03:00:25;;;;;;;12.70;5.53;;;1.50;97.50;;;;;;5016196;28;20053;-84
2021/12/21 03:02:50;;;;;;;11.68;5.70;;;1.60;97.50;;;;;;5032316;28;20049;-84
2021/12/21 03:05:16;;;;;;;10.85;5.20;;;1.40;97.50;;;;;;5033128;28;20099;-84
2021/12/21 03:08:07;;;;;;;12.85;6.25;;;1.40;97.50;;;;;;5035607;28;20064;-84
2021/12/21 03:10:33;;;;;;;14.50;6.07;;;1.60;97.70;;;;;;5026318;28;20061;-84
2021/12/21 03:15:29;;;;;;;13.90;6.45;;;1.30;97.80;;;;;;5050160;28;20452;-84
2021/12/21 03:17:56;;;;;;;17.75;6.10;;;1.30;97.70;;;;;;5034917;28;20137;-84
2021/12/21 03:20:23;;;;;;;15.05;5.22;;;1.20;97.60;;;;;;5015824;28;20048;-84
2021/12/21 03:22:50;;;;;;;12.65;6.28;;;1.20;97.60;;;;;;5016209;28;20057;-84
2021/12/21 03:25:16;;;;;;;11.93;6.78;;;1.20;97.60;;;;;;5033241;28;20049;-84
2021/12/21 03:27:43;;;;;;;19.25;6.32;;;1.30;97.80;;;;;;5066547;28;20531;-85
2021/12/21 03:30:11;;;;;;;16.17;6.45;;;1.20;97.80;;;;;;5048750;28;20099;-85
2021/12/21 03:32:37;;;;;;;10.82;5.50;;;1.20;97.70;;;;;;5049023;28;20051;-85
2021/12/21 03:35:04;;;;;;;9.43;5.07;;;1.30;97.70;;;;;;5048883;28;20140;-84
2021/12/21 03:37:30;;;;;;;8.30;4.55;;;1.30;97.90;;;;;;5048933;28;20041;-85
2021/12/21 03:39:57;;;;;;;10.82;4.57;;;1.20;97.80;;;;;;5065844;28;20053;-84
2021/12/21 03:42:24;;;;;;;10.15;4.30;;;1.30;97.80;;;;;;5048110;28;20053;-85
2021/12/21 03:44:50;;;;;;;9.68;4.35;;;1.30;97.80;;;;;;5065791;28;20045;-84
2021/12/21 03:47:17;;;;;;;10.25;4.30;;;1.20;97.80;;;;;;5015864;28;20481;-85
2021/12/21 03:52:21;;;;;;;9.27;3.72;;;1.30;97.80;;;;;;5065249;28;20045;-85
2021/12/21 03:54:49;;;;;;;8.57;4.40;;;1.30;97.80;;;;;;5031801;28;20050;-85
2021/12/21 03:57:16;;;;;;;8.15;3.90;;;1.30;97.60;;;;;;5032178;28;20519;-85
2021/12/21 03:59:43;;;;;;;11.10;4.82;;;1.20;97.50;;;;;;5048933;28;20515;-85
2021/12/21 04:02:11;;;;;;;9.65;4.05;;;1.20;97.80;;;;;;5048952;28;20049;-85
2021/12/21 04:04:38;;;;;;;11.70;4.25;;;1.20;97.90;;;;;;5032781;28;20476;-85
2021/12/21 04:07:04;;;;;;;11.30;4.43;;;1.10;97.90;;;;;;5016339;28;20152;-85
2021/12/21 04:09:30;;;;;;;10.93;3.50;;;1.00;97.90;;;;;;5015475;28;20046;-86
2021/12/21 04:11:55;;;;;;;11.60;4.20;;;1.10;98.00;;;;;;5064903;28;20045;-85
2021/12/21 04:14:21;;;;;;;10.15;3.75;;;1.00;98.10;;;;;;5033525;28;20050;-85
2021/12/21 04:16:48;;;;;;;8.23;4.38;;;1.10;98.00;;;;;;5019133;28;20488;-85
2021/12/21 04:19:14;;;;;;;10.70;4.03;;;1.10;97.90;;;;;;5019063;28;20050;-85
2021/12/21 04:21:41;;;;;;;13.93;4.47;;;1.10;97.80;;;;;;5019131;28;20553;-85
2021/12/21 04:24:07;;;;;;;10.38;3.97;;;1.20;97.90;;;;;;5036854;28;20517;-85
2021/12/21 04:26:33;;;;;;;8.75;4.00;;;1.20;97.80;;;;;;5055274;28;20066;-85
2021/12/21 04:28:58;;;;;;;9.13;3.88;;;1.70;98.00;;;;;;5055013;28;20484;-86
2021/12/21 04:31:24;;;;;;;9.52;4.13;;;1.10;97.50;;;;;;5039049;28;20455;-85
2021/12/21 04:33:50;;;;;;;8.40;4.25;;;1.00;97.60;;;;;;5018529;28;20136;-85
2021/12/21 04:36:16;;;;;;;9.07;3.75;;;1.30;97.70;;;;;;5018541;28;20045;-85
2021/12/21 04:38:46;;;;;;;12.00;3.42;;;1.00;97.70;;;;;;5018000;28;20131;-86
2021/12/21 04:41:21;;;;;;;7.88;3.83;;;1.20;97.80;;;;;;5052283;28;20464;-85
2021/12/21 04:43:46;;;;;;;9.70;4.05;;;1.10;97.70;;;;;;5018634;28;20049;-85
2021/12/21 04:46:12;;;;;;;9.75;4.30;;;1.00;97.60;;;;;;5035584;28;20404;-86
2021/12/21 04:48:38;;;;;;;10.32;4.35;;;1.40;97.60;;;;;;5018570;28;20407;-85
2021/12/21 04:51:04;;;;;;;8.80;3.42;;;1.00;97.60;;;;;;5034882;28;20045;-85
2021/12/21 04:53:30;;;;;;;5.72;3.42;;;1.10;97.50;;;;;;5017901;28;20116;-85
2021/12/21 04:55:56;;;;;;;9.05;3.90;;;1.20;97.60;;;;;;5019157;28;20049;-85
2021/12/21 04:58:21;;;;;;;7.38;3.08;;;1.20;97.60;;;;;;5017954;28;20057;-86
2021/12/21 05:00:48;;;;;;;9.60;4.05;;;0.90;97.60;;;;;;5046277;28;20068;-85
2021/12/21 05:03:14;;;;;;;7.95;3.20;;;0.90;97.40;;;;;;5067752;28;20049;-86
2021/12/21 05:05:40;;;;;;;6.88;3.65;;;0.80;97.60;;;;;;5051070;28;20054;-85
2021/12/21 05:08:09;;;;;;;7.47;3.45;;;0.60;97.60;;;;;;5051561;28;20052;-85
2021/12/21 05:10:49;;;;;;;8.13;3.67;;;0.80;97.70;;;;;;5051177;28;20049;-86
2021/12/21 05:13:17;;;;;;;9.57;3.80;;;0.90;97.60;;;;;;5035270;28;20041;-86
2021/12/21 05:15:43;;;;;;;10.00;4.10;;;0.90;97.80;;;;;;5034464;28;20049;-86
2021/12/21 05:18:13;;;;;;;9.18;3.85;;;0.90;97.50;;;;;;5034180;28;20049;-86
2021/12/21 05:20:39;;;;;;;11.75;4.28;;;0.90;97.50;;;;;;5034318;28;20044;-86
2021/12/21 05:23:06;;;;;;;7.85;3.90;;;0.90;97.60;;;;;;5034068;28;20496;-86
2021/12/21 05:25:32;;;;;;;9.32;3.85;;;1.00;97.70;;;;;;5017510;28;20516;-87
2021/12/21 05:27:58;;;;;;;9.35;4.03;;;1.00;97.50;;;;;;5020765;28;20041;-86
2021/12/21 05:30:26;;;;;;;11.68;4.35;;;0.80;97.60;;;;;;5037625;28;20048;-86
2021/12/21 05:32:52;;;;;;;7.43;3.47;;;0.80;97.70;;;;;;5071019;28;20492;-86
2021/12/21 05:35:19;;;;;;;8.55;4.00;;;0.70;97.70;;;;;;5016423;28;20532;-86
2021/12/21 05:37:46;;;;;;;8.73;4.10;;;0.70;97.70;;;;;;5016660;28;20152;-86
2021/12/21 05:40:16;;;;;;;14.07;4.45;;;1.10;97.80;;;;;;5033801;28;20041;-87
2021/12/21 05:42:44;;;;;;;9.40;3.72;;;0.90;97.80;;;;;;5017646;28;20059;-86
2021/12/21 05:45:12;;;;;;;11.30;4.32;;;0.80;97.70;;;;;;5017548;28;20132;-86
2021/12/21 05:47:38;;;;;;;10.45;4.30;;;0.70;97.50;;;;;;5017216;28;20080;-86
2021/12/21 05:50:08;;;;;;;9.73;3.85;;;0.60;97.30;;;;;;5067005;28;20045;-86
2021/12/21 05:52:34;;;;;;;6.00;3.53;;;0.60;97.50;;;;;;5050433;28;20049;-86
2021/12/21 05:55:00;;;;;;;10.52;4.10;;;0.70;97.80;;;;;;5000717;28;20045;-86
2021/12/21 05:57:26;;;;;;;12.05;4.35;;;0.80;97.70;;;;;;5035930;28;20385;-85
2021/12/21 05:59:52;;;;;;;8.18;3.90;;;0.70;97.40;;;;;;5017576;28;20042;-86
2021/12/21 06:02:18;;;;;;;8.52;4.20;;;0.70;97.60;;;;;;5034202;28;20100;-86
2021/12/21 06:04:44;;;;;;;8.38;4.10;;;0.60;97.30;;;;;;5033745;28;20184;-86
2021/12/21 06:07:10;;;;;;;8.20;4.38;;;0.70;97.40;;;;;;5034406;28;20484;-86
2021/12/21 06:09:36;;;;;;;11.57;4.20;;;0.50;97.60;;;;;;5033193;28;20045;-86
2021/12/21 06:12:13;;;;;;;8.23;4.03;;;0.80;97.70;;;;;;5017873;28;20125;-86
2021/12/21 06:23:10;;;;;;;8.45;4.15;;;0.50;97.50;;;;;;5013560;28;20058;-86
2021/12/21 06:28:08;;;;;;;11.30;4.72;;;0.60;97.50;;;;;;5013439;28;20046;-86
2021/12/21 06:30:35;;;;;;;11.95;4.68;;;0.60;97.20;;;;;;5039999;28;20496;-86
2021/12/21 06:33:02;;;;;;;7.78;4.13;;;0.50;97.50;;;;;;5052967;28;20072;-86
2021/12/21 06:35:27;;;;;;;7.43;4.45;;;0.50;97.60;;;;;;5053192;28;20503;-87
2021/12/21 06:37:54;;;;;;;7.40;4.78;;;0.60;97.70;;;;;;5023753;28;20042;-86
2021/12/21 06:40:20;;;;;;;9.70;5.13;;;0.60;97.70;;;;;;5029383;28;20053;-86
2021/12/21 06:42:49;;;;;;;8.57;4.22;;;0.60;97.60;;;;;;5019405;28;20098;-87
2021/12/21 06:45:27;;;;;;;8.25;4.43;;;0.60;97.60;;;;;;5069453;28;20041;-87
2021/12/21 06:53:23;;;;;;;10.60;4.68;;;0.50;97.60;;;;;;5051936;28;20139;-86
2021/12/21 06:55:48;;;;;;;9.45;4.68;;;0.40;97.60;;;;;;5035768;28;20145;-86
2021/12/21 06:58:15;;;;;;;8.93;4.22;;;0.50;97.60;;;;;;5052619;28;20102;-87
2021/12/21 07:00:42;;;;;;;9.88;4.65;;;0.60;97.60;;;;;;5039006;28;20061;-86
2021/12/21 07:03:08;;;;;;;9.10;4.28;;;0.60;97.60;;;;;;5033550;28;20132;-87
2021/12/21 07:05:34;;;;;;;8.52;4.45;;;0.60;97.60;;;;;;5032494;28;20548;-86
2021/12/21 07:08:00;;;;;;;10.55;5.07;;;0.70;97.70;;;;;;5049494;28;20045;-87
2021/12/21 07:10:28;;;;;;;7.47;4.10;;;0.70;97.60;;;;;;5015952;28;20103;-86
2021/12/21 07:18:31;;;;;;;7.38;3.72;;;0.70;97.50;;;;;;5033200;28;20057;-86
2021/12/21 07:20:59;;;;;;;10.45;4.18;;;0.60;97.40;;;;;;5017884;28;20050;-87
2021/12/21 07:23:25;;;;;;;12.10;4.40;;;0.60;97.50;;;;;;5019610;28;20507;-85
2021/12/21 07:25:51;;;;;;;9.18;4.03;;;0.60;97.50;;;;;;5052507;28;20045;-86
2021/12/21 07:28:17;;;;;;;8.02;4.38;;;0.60;97.60;;;;;;5052371;28;20045;-86
2021/12/21 07:30:43;;;;;;;8.27;4.38;;;1.00;97.70;;;;;;5069160;28;20098;-86
2021/12/21 07:33:09;;;;;;;9.75;3.85;;;0.60;97.60;;;;;;5038355;28;20128;-87
2021/12/21 07:35:36;;;;;;;7.57;3.97;;;0.60;97.50;;;;;;5065875;28;20045;-86
2021/12/21 07:38:05;;;;;;;8.27;4.05;;;0.90;97.60;;;;;;5033048;28;20053;-87
2021/12/21 07:40:31;;;;;;;10.23;4.25;;;0.90;97.60;;;;;;5068736;28;20053;-86
2021/12/21 07:42:57;;;;;;;8.80;3.88;;;0.50;97.50;;;;;;5019275;28;20369;-86
2021/12/21 07:45:23;;;;;;;8.70;4.10;;;0.60;97.60;;;;;;5035584;28;20484;-86
2021/12/21 07:47:49;;;;;;;9.88;4.45;;;0.50;97.50;;;;;;5052931;28;20146;-86
2021/12/21 07:50:15;;;;;;;8.25;4.13;;;0.50;97.40;;;;;;5056307;28;20094;-86
2021/12/21 07:52:41;;;;;;;13.38;4.50;;;0.40;97.50;;;;;;5056296;28;20070;-86
2021/12/21 07:55:07;;;;;;;9.98;4.28;;;0.40;97.60;;;;;;5055318;28;20056;-86
2021/12/21 07:57:32;;;;;;;8.20;4.25;;;0.40;97.60;;;;;;5055359;28;20052;-86
2021/12/21 08:00:01;;;;;;;8.95;4.65;;;0.70;97.90;;;;;;5035759;28;20060;-87
2021/12/21 08:02:27;;;;;;;8.98;4.60;;;0.50;97.80;;;;;;5036133;28;20546;-87
2021/12/21 08:04:54;;;;;;;7.75;4.70;;;0.50;97.80;;;;;;5036414;28;20495;-86
2021/12/21 08:07:24;;;;;;;9.75;4.22;;;0.60;97.70;;;;;;5040282;28;20418;-86
2021/12/21 08:09:53;;;;;;;9.50;5.00;;;0.60;97.70;;;;;;5072185;28;20403;-86
2021/12/21 08:12:20;;;;;;;8.35;4.10;;;0.60;97.60;;;;;;5039319;28;20094;-87
2021/12/21 08:14:48;;;;;;;10.77;4.40;;;0.60;97.50;;;;;;5056473;28;20598;-87
2021/12/21 08:17:15;;;;;;;15.13;5.07;;;0.60;97.70;;;;;;5055148;28;20041;-86
2021/12/21 08:19:41;;;;;;;12.15;4.78;;;0.60;97.80;;;;;;5072321;28;20048;-86
2021/12/21 08:22:06;;;;;;;11.73;4.95;;;0.60;97.80;;;;;;5054267;28;20044;-87
2021/12/21 08:24:33;;;;;;;10.07;5.03;;;0.70;97.70;;;;;;5028847;28;20052;-87
2021/12/21 08:27:03;;;;;;;11.43;4.90;;;0.70;97.80;;;;;;5019763;28;20136;-87
2021/12/21 08:29:31;;;;;;;12.55;5.18;;;0.90;97.60;;;;;;5022123;28;20037;-86
2021/12/21 08:31:57;;;;;;;8.98;5.43;;;1.00;97.70;;;;;;5072788;28;20063;-88
2021/12/21 08:34:23;;;;;;;10.73;4.82;;;0.80;97.70;;;;;;5055897;28;20049;-87
2021/12/21 08:36:50;;;;;;;12.15;5.07;;;0.60;97.70;;;;;;5073607;28;20045;-86
2021/12/21 08:39:17;;;;;;;9.95;4.88;;;0.60;97.70;;;;;;5041575;28;20071;-87
2021/12/21 08:41:44;;;;;;;13.10;5.20;;;0.70;97.70;;;;;;5036418;28;20058;-87
2021/12/21 08:44:12;;;;;;;9.20;4.78;;;0.60;97.80;;;;;;5013966;28;20045;-87
2021/12/21 08:46:40;;;;;;;8.40;4.63;;;0.60;97.90;;;;;;5019365;28;20132;-73
2021/12/21 08:49:06;;;;;;;9.98;5.22;;;0.70;98.10;;;;;;5034707;28;20499;-75
2021/12/21 08:51:32;;;;;;;11.20;5.40;;;0.80;98.10;;;;;;5018573;28;20523;-73
2021/12/21 08:53:58;;;;;;;13.27;4.97;;;0.80;98.10;;;;;;5067809;28;20182;-74
2021/12/21 08:56:24;;;;;;;13.73;5.13;;;0.90;98.10;;;;;;5018385;28;20045;-74
2021/12/21 08:58:50;;;;;;;8.40;4.50;;;0.90;98.00;;;;;;5014281;28;20061;-72
2021/12/21 09:01:17;;;;;;;14.43;5.30;;;0.90;98.00;;;;;;5016175;28;20052;-72
2021/12/21 09:03:45;;;;;;;9.88;4.82;;;0.90;97.90;;;;;;5023545;28;20069;-73
2021/12/21 09:06:11;;;;;;;15.68;6.03;;;0.90;97.90;;;;;;5015859;28;20089;-72
2021/12/21 09:08:37;;;;;;;13.25;5.97;;;1.00;98.00;;;;;;5015191;28;20504;-72
2021/12/21 09:11:05;;;;;;;10.82;5.53;;;1.10;98.10;;;;;;4998426;28;20481;-72
2021/12/21 09:13:32;;;;;;;8.23;5.18;;;1.10;97.90;;;;;;5015176;28;20057;-74
2021/12/21 09:15:58;;;;;;;10.13;4.88;;;1.20;98.10;;;;;;5014403;28;20084;-74
2021/12/21 09:18:25;;;;;;;12.27;6.28;;;1.20;98.10;;;;;;4998285;28;20524;-74
2021/12/21 09:20:50;;;;;;;11.00;5.30;;;1.30;97.90;;;;;;5031074;28;20046;-74
2021/12/21 09:23:17;;;;;;;10.35;5.40;;;1.30;98.00;;;;;;4998130;28;20046;-74
2021/12/21 09:25:42;;;;;;;14.95;6.00;;;1.40;98.10;;;;;;5014122;28;20136;-74
2021/12/21 09:28:08;;;;;;;11.85;5.70;;;1.40;98.00;;;;;;4998048;28;20445;-74
2021/12/21 09:30:34;;;;;;;11.65;5.32;;;1.50;98.00;;;;;;5014418;28;20046;-73
2021/12/21 09:33:00;;;;;;;14.77;5.85;;;1.60;98.00;;;;;;5015331;28;20093;-74
2021/12/21 09:35:26;;;;;;;9.70;6.05;;;1.60;97.90;;;;;;5015686;28;20042;-73
2021/12/21 09:37:53;;;;;;;15.55;6.50;;;1.60;97.90;;;;;;5013896;28;20559;-73
2021/12/21 09:40:23;;;;;;;12.60;6.10;;;1.70;98.00;;;;;;5014122;28;20413;-74
2021/12/21 09:42:49;;;;;;;14.15;6.68;;;1.70;98.00;;;;;;4997788;28;20405;-74
2021/12/21 09:45:16;;;;;;;12.60;6.75;;;1.70;98.00;;;;;;5015127;28;20054;-74
2021/12/21 09:47:42;;;;;;;14.40;7.40;;;1.80;98.00;;;;;;5014092;28;20046;-74
2021/12/21 09:50:11;;;;;;;13.30;7.28;;;1.80;98.00;;;;;;5013775;28;20049;-74
2021/12/21 09:52:37;;;;;;;10.57;6.55;;;2.10;98.20;;;;;;5014046;28;20049;-74
2021/12/21 09:55:07;;;;;;;13.55;7.90;;;2.00;98.00;;;;;;5013499;28;20409;-74
2021/12/21 09:57:33;;;;;;;14.55;7.35;;;2.10;98.10;;;;;;5014030;28;20050;-74
2021/12/21 09:59:58;;;;;;;16.83;8.30;;;2.20;98.10;;;;;;5013649;28;20158;-73
2021/12/21 10:02:26;;;;;;;88.25;38.25;;;2.50;98.90;;;;;;5013860;28;20045;-74
2021/12/21 10:05:02;;;;;;;1999.90;999.90;;;2.60;98.10;;;;;;5013522;28;20178;-81
2021/12/21 10:07:29;;;;;;;1999.90;967.67;;;2.80;99.40;;;;;;5013914;28;20049;-83
2021/12/21 10:10:14;;;;;;;574.92;275.15;;;3.70;99.90;;;;;;5013380;28;20397;-79
2021/12/21 10:12:46;;;;;;;147.88;61.13;;;4.20;98.80;;;;;;5012810;28;20050;-79
2021/12/21 10:15:23;;;;;;;50.00;23.15;;;4.80;98.10;;;;;;5013632;28;20049;-80
2021/12/21 10:17:58;;;;;;;28.33;12.60;;;5.00;97.40;;;;;;5030592;28;20049;-82
2021/12/21 10:20:45;;;;;;;19.30;9.95;;;5.40;97.10;;;;;;5013830;28;20053;-81
2021/12/21 10:23:23;;;;;;;15.02;8.38;;;5.60;96.70;;;;;;5013689;28;20053;-83
2021/12/21 10:26:01;;;;;;;18.98;7.82;;;5.80;96.40;;;;;;5013114;28;20061;-83
2021/12/21 10:28:38;;;;;;;15.43;7.57;;;5.90;96.20;;;;;;4997139;28;20042;-83
2021/12/21 10:31:36;;;;;;;16.92;7.43;;;5.90;96.10;;;;;;5013185;28;20046;-80
2021/12/21 10:34:05;;;;;;;12.82;6.65;;;5.90;96.20;;;;;;5008859;28;20057;-78
2021/12/21 10:36:39;;;;;;;15.00;7.40;;;5.90;96.10;;;;;;5012948;28;20054;-79
2021/12/21 10:39:05;;;;;;;14.98;6.30;;;5.90;96.20;;;;;;4999591;28;20101;-88
2021/12/21 10:41:36;;;;;;;15.55;6.60;;;6.00;96.10;;;;;;5013036;28;20054;-80
2021/12/21 10:44:03;;;;;;;15.07;6.13;;;5.90;96.00;;;;;;5012910;28;20050;-81
2021/12/21 10:46:32;;;;;;;10.68;6.53;;;5.90;95.90;;;;;;5013110;28;20049;-81
2021/12/21 10:49:09;;;;;;;15.93;6.50;;;5.90;95.90;;;;;;5012904;28;20041;-83
2021/12/21 10:51:36;;;;;;;14.32;6.53;;;5.80;95.80;;;;;;5013210;28;20052;-82
2021/12/21 10:54:02;;;;;;;17.67;7.18;;;5.70;95.80;;;;;;5013003;28;20120;-81
2021/12/21 10:56:28;;;;;;;11.35;6.35;;;5.80;95.80;;;;;;5022015;28;20175;-79
2021/12/21 10:58:54;;;;;;;13.60;6.40;;;5.70;95.70;;;;;;5033592;28;20111;-79
2021/12/21 11:01:27;;;;;;;13.98;6.40;;;5.70;95.80;;;;;;5031611;28;20041;-80
2021/12/21 11:03:55;;;;;;;14.55;6.68;;;5.60;95.90;;;;;;5014550;28;20114;-80
2021/12/21 11:06:28;;;;;;;13.25;6.55;;;5.60;95.80;;;;;;5028470;28;20077;-85
2021/12/21 11:08:56;;;;;;;12.18;6.22;;;5.60;95.80;;;;;;5013071;28;20041;-87
2021/12/21 11:11:32;;;;;;;13.25;6.35;;;5.60;95.90;;;;;;5041386;28;20095;-82
2021/12/21 11:14:12;;;;;;;10.55;6.28;;;5.60;96.00;;;;;;5045491;28;20050;-82
2021/12/21 11:16:51;;;;;;;14.65;6.72;;;5.60;96.00;;;;;;4996467;28;20045;-82
2021/12/21 11:19:20;;;;;;;14.85;6.57;;;5.60;96.00;;;;;;5012870;28;20521;-82
2021/12/21 11:21:47;;;;;;;10.65;6.18;;;5.60;95.90;;;;;;5029266;28;20057;-82
2021/12/21 11:24:18;;;;;;;12.75;5.72;;;5.60;96.00;;;;;;5031978;28;20042;-81
2021/12/21 11:26:45;;;;;;;11.60;6.38;;;5.70;96.10;;;;;;5000689;28;20050;-81
2021/12/21 11:29:15;;;;;;;12.52;6.07;;;5.80;96.00;;;;;;5000119;28;20477;-82
2021/12/21 11:31:49;;;;;;;16.83;7.38;;;5.70;96.00;;;;;;5000400;28;20085;-82
2021/12/21 11:34:20;;;;;;;14.95;6.95;;;5.80;96.10;;;;;;5016891;28;20057;-82
2021/12/21 11:39:33;;;;;;;12.18;6.20;;;6.00;96.30;;;;;;5035980;28;20046;-81
2021/12/21 11:42:05;;;;;;;18.70;6.05;;;6.20;96.20;;;;;;5019175;28;20057;-80
2021/12/21 11:44:50;;;;;;;15.55;6.07;;;6.30;95.60;;;;;;5016880;28;20129;-81
2021/12/21 11:47:21;;;;;;;10.15;5.38;;;6.50;95.80;;;;;;5035658;28;20400;-85
2021/12/21 11:49:50;;;;;;;12.00;5.28;;;6.60;95.10;;;;;;5035184;28;20037;-84
2021/12/21 11:52:20;;;;;;;12.43;5.13;;;6.40;94.60;;;;;;5019111;28;20077;-83
2021/12/21 11:54:53;;;;;;;13.32;5.50;;;6.20;95.40;;;;;;5018132;28;20480;-79
2021/12/21 11:57:32;;;;;;;11.98;5.13;;;6.10;95.50;;;;;;5019198;28;20143;-80
2021/12/21 12:00:22;;;;;;;12.45;4.75;;;5.80;95.20;;;;;;5035860;28;20142;-81
2021/12/21 12:02:50;;;;;;;13.00;5.28;;;5.70;95.40;;;;;;5034601;28;20067;-80
2021/12/21 12:05:28;;;;;;;12.38;5.45;;;5.40;95.20;;;;;;5032199;28;20059;-82
2021/12/21 12:08:07;;;;;;;8.63;4.80;;;5.70;95.90;;;;;;5032473;28;20128;-83
2021/12/21 12:10:37;;;;;;;9.35;4.75;;;5.90;94.90;;;;;;5029968;28;20117;-82
2021/12/21 12:13:15;;;;;;;13.02;4.53;;;6.10;94.20;;;;;;5035096;28;20075;-79
2021/12/21 12:15:51;;;;;;;11.25;5.00;;;6.20;95.00;;;;;;5019708;28;20049;-75
2021/12/21 12:18:36;;;;;;;10.95;5.55;;;6.40;94.80;;;;;;5035452;28;20626;-75
2021/12/21 12:21:28;;;;;;;12.27;4.97;;;6.40;94.70;;;;;;5035618;28;20049;-75
2021/12/21 12:23:55;;;;;;;16.55;6.05;;;6.00;94.60;;;;;;5035979;28;20046;-75
2021/12/21 12:26:41;;;;;;;13.75;5.35;;;5.80;94.90;;;;;;5035093;28;20048;-75
2021/12/21 12:29:18;;;;;;;13.70;5.90;;;5.80;95.20;;;;;;5018259;28;20056;-76
2021/12/21 12:32:01;;;;;;;11.43;5.47;;;6.00;95.40;;;;;;5036339;28;20455;-75
2021/12/21 12:34:31;;;;;;;14.52;5.57;;;6.30;95.30;;;;;;5034293;28;20503;-75
2021/12/21 12:36:59;;;;;;;14.43;5.55;;;6.40;94.80;;;;;;5035822;28;20050;-75
2021/12/21 12:39:33;;;;;;;12.05;4.70;;;6.70;94.30;;;;;;5036552;28;20050;-75
2021/12/21 12:42:06;;;;;;;9.45;4.75;;;7.20;94.50;;;;;;5034625;28;20409;-79
2021/12/21 12:44:33;;;;;;;10.60;4.18;;;7.50;93.70;;;;;;5035133;28;20057;-79
2021/12/21 12:47:02;;;;;;;11.93;4.93;;;7.50;93.40;;;;;;5034988;28;20060;-80
2021/12/21 12:49:30;;;;;;;13.95;4.70;;;7.60;93.30;;;;;;5034503;28;20052;-77
2021/12/21 12:52:05;;;;;;;11.63;4.68;;;7.70;93.40;;;;;;5037891;28;20465;-75
2021/12/21 12:54:41;;;;;;;10.27;4.40;;;8.60;93.30;;;;;;5017998;28;20053;-75
2021/12/21 12:57:09;;;;;;;11.15;4.30;;;9.20;92.80;;;;;;5019923;28;20037;-77
2021/12/21 12:59:35;;;;;;;7.78;3.75;;;9.90;92.50;;;;;;5010429;28;20076;-76
2021/12/21 13:02:07;;;;;;;7.15;3.92;;;10.50;91.90;;;;;;5033876;28;20142;-76
2021/12/21 13:04:36;;;;;;;9.85;3.60;;;11.40;91.70;;;;;;5035536;28;20089;-74
2021/12/21 13:07:02;;;;;;;7.70;3.35;;;12.00;91.10;;;;;;5018023;28;20143;-75
2021/12/21 13:09:31;;;;;;;8.52;3.45;;;12.30;91.10;;;;;;5034266;28;20050;-75
2021/12/21 13:11:57;;;;;;;11.57;4.07;;;12.10;91.20;;;;;;5034452;28;20075;-75
2021/12/21 13:14:23;;;;;;;9.77;3.88;;;11.70;91.20;;;;;;5034308;28;20054;-76
2021/12/21 13:16:49;;;;;;;10.40;3.80;;;11.40;91.20;;;;;;5034276;28;20053;-76
2021/12/21 13:19:16;;;;;;;10.00;3.40;;;11.30;91.50;;;;;;5033987;28;20060;-75
2021/12/21 13:21:51;;;;;;;12.20;4.38;;;11.30;91.10;;;;;;5034260;28;20472;-74
2021/12/21 13:24:19;;;;;;;11.55;3.92;;;11.10;90.50;;;;;;5050755;28;20451;-75
2021/12/21 13:26:58;;;;;;;11.25;3.55;;;10.40;90.80;;;;;;5018476;28;20049;-73
2021/12/21 13:29:32;;;;;;;10.18;3.80;;;10.10;90.80;;;;;;5017592;28;20041;-84
2021/12/21 13:32:02;;;;;;;9.02;3.67;;;9.70;90.30;;;;;;5031943;28;20050;-75
2021/12/21 13:34:28;;;;;;;10.27;3.67;;;9.20;91.40;;;;;;5026454;28;20128;-75
2021/12/21 13:36:59;;;;;;;9.85;3.40;;;9.60;90.80;;;;;;5037287;28;20050;-75
2021/12/21 13:39:30;;;;;;;12.43;4.28;;;9.70;91.00;;;;;;4998009;28;20490;-76
2021/12/21 13:41:58;;;;;;;10.45;3.90;;;9.50;90.60;;;;;;5030520;28;20050;-76
2021/12/21 13:44:31;;;;;;;8.90;4.30;;;9.10;90.90;;;;;;5034377;28;20135;-76
2021/12/21 13:47:19;;;;;;;11.30;4.03;;;9.00;91.20;;;;;;5033565;28;20046;-75
2021/12/21 13:50:08;;;;;;;10.32;3.95;;;8.90;91.60;;;;;;5027885;28;20485;-75
2021/12/21 13:52:38;;;;;;;13.05;4.40;;;8.80;91.10;;;;;;5013992;28;20053;-76
2021/12/21 13:55:18;;;;;;;8.63;3.75;;;8.10;91.30;;;;;;5042726;28;20042;-75
2021/12/21 13:57:46;;;;;;;10.10;4.25;;;7.60;91.90;;;;;;5033128;28;20041;-75
2021/12/21 14:00:12;;;;;;;10.75;4.35;;;7.20;92.10;;;;;;5033475;28;20546;-76
2021/12/21 14:02:49;;;;;;;20.92;4.90;;;6.80;92.80;;;;;;5017121;28;20050;-76
2021/12/21 14:05:20;;;;;;;7.93;3.95;;;6.70;92.80;;;;;;5033429;28;20045;-76
2021/12/21 14:07:49;;;;;;;10.00;4.57;;;6.70;93.20;;;;;;5016041;28;20401;-79
2021/12/21 14:10:23;;;;;;;9.68;4.55;;;6.60;93.00;;;;;;5015979;28;20081;-77